DB0OFT-6 Weather Reports


time (UTC)temp
F
wind
direction
speed
knots
gust
knots
rain 1hr
in
rain 24hr
in
rain mn
in
humidity
%
barometer
mb
20210518193906 49 157 0.0 0.0 0.00 0.00 0.00 69 967.5
20210518192901 49 337 0.0 0.0 0.00 0.00 0.00 69 967.4
20210518192552 50 22 0.0 0.0 0.00 0.00 0.00 68 967.3
20210518192439 50 22 0.0 0.0 0.00 0.00 0.00 68 967.3
20210518191902 50 22 0.0 0.0 0.00 0.00 0.00 68 967.3
20210518190901 50 22 0.0 0.0 0.00 0.00 0.00 68 967.3
20210518185633 51 315 0.0 0.0 0.00 0.00 0.00 66 967.4
20210518185418 51 315 0.0 0.0 0.00 0.00 0.00 66 967.4
20210518184903 51 315 0.0 0.0 0.00 0.00 0.00 66 967.4
20210518184613 51 247 0.0 0.0 0.00 0.00 0.00 66 967.2
20210518183903 51 247 0.0 0.0 0.00 0.00 0.00 66 967.2
20210518183115 52 157 0.0 0.0 0.00 0.00 0.00 66 967.1
20210518182903 52 157 0.0 0.0 0.00 0.00 0.00 66 967.1
20210518180902 52 157 0.0 0.0 0.00 0.00 0.00 65 966.9
20210518180218 53 157 0.0 0.0 0.00 0.00 0.00 65 966.7
20210518175903 53 157 0.0 0.0 0.00 0.00 0.00 65 966.7
20210518175305 53 180 0.0 0.0 0.00 0.00 0.00 65 966.6
20210518174902 53 180 0.0 0.0 0.00 0.00 0.00 65 966.6
20210518173037 54 180 0.9 0.0 0.00 0.00 0.00 63 966.3
20210518172903 54 180 0.9 0.0 0.00 0.00 0.00 63 966.3
20210518172236 54 157 0.0 0.0 0.00 0.00 0.00 63 966.4
20210518171902 54 157 1.7 0.0 0.00 0.00 0.00 63 966.4
20210518170902 54 157 0.0 0.0 0.00 0.00 0.00 63 966.4
20210518170302 54 112 0.0 0.0 0.00 0.00 0.00 64 966.3
20210518165902 54 112 0.0 0.0 0.00 0.00 0.00 64 966.3
20210518165234 54 202 0.9 0.0 0.00 0.00 0.00 63 966.3
20210518165222 54 157 0.0 0.0 0.00 0.00 0.00 62 966.3
20210518164902 53 67 0.0 0.0 0.00 0.00 0.00 63 966.3
20210518163902 54 202 0.9 0.0 0.00 0.00 0.00 63 966.3
20210518162902 54 157 0.0 0.0 0.00 0.00 0.00 62 966.3
20210518161902 54 135 0.9 0.0 0.00 0.00 0.00 62 966.4
20210518155902 55 157 0.0 0.0 0.00 0.00 0.00 60 966.8
20210518154943 57 67 0.9 0.0 0.00 0.00 0.00 59 966.7
20210518154902 57 67 0.9 0.0 0.00 0.00 0.00 59 966.7
20210518153910 58 135 0.0 0.0 0.00 0.00 0.00 57 966.3
20210518153902 57 180 0.0 0.0 0.00 0.00 0.00 58 966.2
20210518152902 58 135 0.0 0.0 0.00 0.00 0.00 57 966.3
20210518151903 59 112 0.0 0.0 0.00 0.00 0.00 57 966.3
20210518145904 59 157 0.9 0.0 0.00 0.00 0.00 56 966.3
20210518144902 60 180 0.0 0.0 0.00 0.00 0.00 55 966.3
20210518143835 58 90 0.0 0.0 0.00 0.00 0.00 57 966.3
20210518142902 59 157 0.9 0.0 0.00 0.00 0.00 57 966.4
20210518141902 58 90 0.0 0.0 0.00 0.00 0.00 57 966.3
20210518141757 58 180 0.0 0.0 0.00 0.00 0.00 57 966.4
20210518140902 58 180 0.0 0.0 0.00 0.00 0.00 57 966.4
20210518140357 58 157 0.9 0.0 0.00 0.00 0.00 59 966.4
20210518135903 58 157 0.9 0.0 0.00 0.00 0.00 59 966.4
20210518135028 58 67 0.0 0.0 0.00 0.00 0.00 59 966.4
20210518134902 58 67 0.0 0.0 0.00 0.00 0.00 59 966.4
20210518134049 58 202 0.0 0.0 0.00 0.00 0.00 62 966.5
20210518133902 58 202 0.0 0.0 0.00 0.00 0.00 62 966.5
20210518133213 58 112 0.0 0.0 0.00 0.00 0.00 63 966.7
20210518132903 58 112 0.0 0.0 0.00 0.00 0.00 63 966.7
20210518131108 57 180 0.0 0.0 0.00 0.00 0.00 67 966.5
20210518130902 57 180 0.0 0.0 0.00 0.00 0.00 67 966.5
20210518130248 54 157 0.9 0.0 0.00 0.00 0.00 69 966.7
20210518125903 54 157 0.9 0.0 0.00 0.00 0.00 69 966.7
20210518123905 53 157 0.0 0.0 0.00 0.00 0.00 63 967.0
20210518122959 59 292 0.9 0.0 0.00 0.00 0.00 56 967.0
20210518122902 59 292 0.9 0.0 0.00 0.00 0.00 56 967.0
20210518121945 61 67 0.0 0.0 0.00 0.00 0.00 52 966.5
20210518121902 61 67 0.0 0.0 0.00 0.00 0.00 52 966.5
20210518121154 61 157 1.7 0.0 0.00 0.00 0.00 53 966.5
20210518120903 61 157 1.7 0.0 0.00 0.00 0.00 53 966.5
20210518115348 61 157 0.9 0.0 0.00 0.00 0.00 55 966.8
20210518114901 60 135 0.9 0.0 0.00 0.00 0.00 54 966.8
20210518113902 61 157 0.9 0.0 0.00 0.00 0.00 55 966.8
20210518113113 61 157 0.0 0.0 0.00 0.00 0.00 56 967.0
20210518112902 61 157 0.0 0.0 0.00 0.00 0.00 56 967.0
20210518112311 61 180 0.9 0.0 0.00 0.00 0.00 58 967.0
20210518112306 60 157 1.7 0.0 0.00 0.00 0.00 58 967.1
20210518111903 61 180 0.9 0.0 0.00 0.00 0.00 58 967.0
20210518110902 60 157 1.7 0.0 0.00 0.00 0.00 58 967.1
20210518105901 59 157 0.9 0.0 0.00 0.00 0.00 61 967.4
20210518104902 58 202 0.9 0.0 0.00 0.00 0.00 63 967.4
20210518103902 57 157 0.0 0.0 0.00 0.00 0.00 61 967.3
20210518102903 59 157 0.9 0.0 0.00 0.00 0.00 62 967.4
20210518102158 58 135 0.0 0.0 0.00 0.00 0.00 63 967.4
20210518101902 58 135 0.0 0.0 0.00 0.00 0.00 63 967.4
20210518100905 58 202 0.9 0.0 0.00 0.00 0.00 65 967.4
20210518095534 61 135 0.9 0.0 0.00 0.00 0.00 61 967.4
20210518095000 61 135 0.9 0.0 0.00 0.00 0.00 61 967.4
20210518094903 61 135 0.9 0.0 0.00 0.00 0.00 61 967.4
20210518094105 61 180 1.7 0.0 0.00 0.00 0.00 63 967.4
20210518093902 61 180 1.7 0.0 0.00 0.00 0.00 63 967.4
20210518093200 60 157 0.9 0.0 0.00 0.00 0.00 64 967.4
20210518092903 60 157 0.9 0.0 0.00 0.00 0.00 64 967.4
20210518092311 60 22 0.0 0.0 0.00 0.00 0.00 66 967.4
20210518091901 60 22 0.0 0.0 0.00 0.00 0.00 66 967.4
20210518091153 59 180 0.9 0.0 0.00 0.00 0.00 69 967.5
20210518090901 59 180 0.9 0.0 0.00 0.00 0.00 69 967.5
20210518085929 52 157 0.9 0.0 0.00 0.00 0.00 76 967.8
20210518085901 57 135 1.7 0.0 0.00 0.00 0.00 74 967.7
20210518082902 52 157 0.9 0.0 0.00 0.00 0.00 76 967.8
20210518082143 51 157 0.0 0.0 0.00 0.00 0.00 77 967.7
20210518081903 51 157 0.0 0.0 0.00 0.00 0.00 77 967.7
20210518080902 50 157 0.9 0.0 0.00 0.00 0.00 78 967.8
20210518080118 50 202 0.9 0.0 0.00 0.00 0.00 78 967.9
20210518075901 50 202 0.9 0.0 0.00 0.00 0.00 78 967.9
20210518073902 49 180 1.7 0.0 0.00 0.00 0.00 78 968.1
20210518072902 49 135 0.0 0.0 0.00 0.00 0.00 78 967.8
20210518072435 50 157 0.9 0.0 0.00 0.00 0.00 78 967.7
20210518071902 50 135 0.0 0.0 0.00 0.00 0.00 78 967.7
20210518070901 50 157 0.9 0.0 0.00 0.00 0.00 78 967.7
20210518065901 50 157 0.9 0.0 0.00 0.00 0.00 79 967.5
20210518065221 49 157 0.9 0.0 0.00 0.00 0.00 80 967.4
20210518064907 49 157 0.9 0.0 0.00 0.00 0.00 80 967.4
20210518064421 48 202 0.9 0.0 0.00 0.00 0.00 81 967.4
20210518063901 48 202 0.9 0.0 0.00 0.00 0.00 81 967.4
20210518063132 48 157 0.9 0.0 0.00 0.00 0.00 81 967.2
20210518062901 48 157 0.9 0.0 0.00 0.00 0.00 81 967.2
20210518062111 48 135 0.0 0.0 0.00 0.00 0.00 80 967.3
20210518061902 48 135 0.0 0.0 0.00 0.00 0.00 80 967.3
20210518060235 48 135 0.0 0.0 0.00 0.00 0.00 80 967.0
20210518055902 48 135 0.0 0.0 0.00 0.00 0.00 80 967.0
20210518054901 48 180 0.9 0.0 0.00 0.00 0.00 80 966.8
20210518053901 48 157 0.9 0.0 0.00 0.00 0.00 80 966.9
20210518050901 49 202 1.7 0.0 0.00 0.00 0.00 79 966.8
20210518050145 49 180 0.9 0.0 0.00 0.00 0.00 79 966.6
20210518045901 49 180 0.9 0.0 0.00 0.00 0.00 79 966.6
20210518045150 48 180 0.9 0.0 0.00 0.00 0.00 80 966.4
20210518044902 48 180 0.9 0.0 0.00 0.00 0.00 80 966.6
20210518043901 48 180 0.9 0.0 0.00 0.00 0.00 80 966.4
20210518042901 48 180 0.0 0.0 0.00 0.00 0.00 80 966.3
20210518042307 48 180 0.0 0.0 0.00 0.00 0.00 80 966.3
20210518041901 48 180 0.0 0.0 0.00 0.00 0.00 80 966.3
20210518040902 48 180 0.0 0.0 0.00 0.00 0.00 80 966.2
20210518040033 48 180 0.0 0.0 0.00 0.00 0.00 80 966.1
20210518035901 48 180 0.0 0.0 0.00 0.00 0.00 80 966.1
20210518035220 48 180 0.0 0.0 0.00 0.00 0.00 79 966.1
20210518034901 48 180 0.0 0.0 0.00 0.00 0.00 79 966.1
20210518034040 48 157 0.0 0.0 0.00 0.00 0.00 79 966.2
20210518033902 48 157 0.0 0.0 0.00 0.00 0.00 79 966.2
20210518032903 48 157 0.0 0.0 0.00 0.00 0.00 79 966.2
20210518031902 48 180 0.0 0.0 0.00 0.00 0.00 78 966.2
20210518030310 48 135 0.0 0.0 0.00 0.00 0.00 77 966.2
20210518025902 48 135 0.0 0.0 0.00 0.00 0.00 77 966.2
20210518024902 49 112 0.0 0.0 0.00 0.00 0.00 77 966.1
20210518023246 49 157 0.0 0.0 0.00 0.00 0.00 75 965.8
20210518022903 49 157 0.0 0.0 0.00 0.00 0.00 75 965.8
20210518021613 49 157 0.9 0.0 0.00 0.00 0.00 75 965.6
20210518020903 49 157 0.9 0.0 0.00 0.00 0.00 75 965.6
20210518014903 48 180 0.0 0.0 0.00 0.00 0.00 75 965.6
20210518014109 48 157 0.0 0.0 0.00 0.00 0.00 75 965.5
20210518013903 48 157 0.0 0.0 0.00 0.00 0.00 75 965.5
20210518013214 48 180 0.0 0.0 0.00 0.00 0.00 75 965.6
20210518013205 48 180 0.0 0.0 0.00 0.00 0.00 75 965.5
20210518012902 48 157 0.0 0.0 0.00 0.00 0.00 75 965.5
20210518011902 48 180 0.0 0.0 0.00 0.00 0.00 75 965.6
20210518010902 48 180 0.0 0.0 0.00 0.00 0.00 75 965.5
20210518010033 48 202 0.9 0.0 0.00 0.00 0.00 75 965.3
20210518005902 48 202 0.9 0.0 0.00 0.00 0.00 75 965.3
20210518005101 49 157 1.7 0.0 0.00 0.00 0.00 74 965.4
20210518004903 49 157 1.7 0.0 0.00 0.00 0.00 74 965.4
20210518004105 49 180 0.9 0.0 0.00 0.00 0.00 75 965.5
20210518003903 49 180 0.9 0.0 0.00 0.00 0.00 75 965.5
20210518003305 49 180 0.0 0.0 0.00 0.00 0.00 75 965.3
20210518002902 49 180 0.0 0.0 0.00 0.00 0.00 75 965.3
20210518002440 49 180 0.9 0.0 0.00 0.00 0.00 75 965.3
20210518001902 49 180 0.9 0.0 0.00 0.00 0.00 75 965.3
20210518001019 49 157 0.0 0.0 0.00 0.00 0.00 74 965.3
20210518000902 49 157 0.0 0.0 0.00 0.00 0.00 74 965.3
20210518000102 49 157 0.0 0.0 0.00 0.00 0.00 74 965.6
20210517235902 49 157 0.0 0.0 0.00 0.00 0.00 74 965.6
20210517235307 48 180 0.0 0.0 0.00 0.00 0.00 74 965.5
20210517234902 48 180 0.0 0.0 0.00 0.00 0.00 74 965.5
20210517234305 48 135 0.9 0.0 0.00 0.00 0.00 73 965.4
20210517233903 48 135 0.9 0.0 0.00 0.00 0.00 73 965.4
20210517233110 48 180 0.9 0.0 0.00 0.00 0.00 73 965.4
20210517232902 48 180 0.9 0.0 0.00 0.00 0.00 73 965.4
20210517232222 48 225 0.0 0.0 0.00 0.00 0.00 73 965.3
20210517231903 48 225 0.0 0.0 0.00 0.00 0.00 73 965.3
20210517230839 49 225 0.9 0.0 0.00 0.00 0.00 73 965.2
20210517225903 49 225 0.9 0.0 0.00 0.00 0.00 73 965.2
20210517225248 49 180 0.9 0.0 0.00 0.00 0.00 73 965.3
20210517224902 49 180 0.9 0.0 0.00 0.00 0.00 73 965.3
20210517224303 49 180 0.0 0.0 0.00 0.00 0.00 73 965.3
20210517223902 49 180 0.0 0.0 0.00 0.00 0.00 73 965.3
20210517223006 49 247 0.0 0.0 0.00 0.00 0.00 73 965.3
20210517222906 49 247 0.0 0.0 0.00 0.00 0.00 73 965.3
20210517222433 49 135 0.0 0.0 0.00 0.00 0.00 73 965.3
20210517221904 49 135 0.0 0.0 0.00 0.00 0.00 73 965.3
20210517221107 49 157 0.0 0.0 0.00 0.00 0.00 73 965.3
20210517220902 49 157 0.0 0.0 0.00 0.00 0.00 73 965.3
20210517220214 49 157 0.0 0.0 0.00 0.00 0.00 72 965.3
20210517215902 49 157 0.0 0.0 0.00 0.00 0.00 72 965.3
20210517215015 49 202 0.0 0.0 0.00 0.00 0.00 72 965.2
20210517214902 49 202 0.0 0.0 0.00 0.00 0.00 72 965.2
20210517213903 49 22 0.0 0.0 0.00 0.00 0.00 72 965.1
20210517213240 49 157 0.0 0.0 0.00 0.00 0.00 71 964.9
20210517212901 49 157 0.0 0.0 0.00 0.00 0.00 71 964.9
20210517212423 49 180 2.6 0.0 0.00 0.00 0.00 72 964.7
20210517211901 49 180 2.6 0.0 0.00 0.00 0.00 72 964.7
20210517210305 49 157 0.0 0.0 0.00 0.00 0.00 72 964.7
20210517205901 49 157 0.0 0.0 0.00 0.00 0.00 72 964.7
20210517205611 48 112 1.7 0.0 0.00 0.00 0.00 73 964.7
20210517204902 48 112 1.7 0.0 0.00 0.00 0.00 73 964.7
20210517203903 48 157 0.0 0.0 0.00 0.00 0.00 73 964.5
20210517203348 48 157 0.0 0.0 0.00 0.00 0.00 73 964.5
20210517203340 49 202 0.0 0.0 0.00 0.00 0.00 73 964.5
20210517202901 48 157 0.0 0.0 0.00 0.00 0.00 73 964.5
20210517201901 49 202 0.0 0.0 0.00 0.00 0.00 73 964.5
20210517200903 49 157 0.0 0.0 0.00 0.00 0.00 72 964.3
20210517195902 49 180 0.9 0.0 0.00 0.00 0.00 72 964.2
20210517194902 50 157 1.7 0.0 0.00 0.00 0.00 73 964.2